sensor_id;sensor_type;location;lat;lon;timestamp;P1;durP1;ratioP1;P2;durP2;ratioP2
20287;SDS011;10303;51.960;8.372;2024-02-28T00:00:28;12.37;;;5.83;;
20287;SDS011;10303;51.960;8.372;2024-02-28T00:02:54;9.87;;;6.30;;
20287;SDS011;10303;51.960;8.372;2024-02-28T00:05:20;10.40;;;5.70;;
20287;SDS011;10303;51.960;8.372;2024-02-28T00:07:46;10.37;;;6.23;;
20287;SDS011;10303;51.960;8.372;2024-02-28T00:10:13;12.67;;;6.87;;
20287;SDS011;10303;51.960;8.372;2024-02-28T00:12:39;11.67;;;6.43;;
20287;SDS011;10303;51.960;8.372;2024-02-28T00:15:05;8.70;;;5.27;;
20287;SDS011;10303;51.960;8.372;2024-02-28T00:17:38;10.23;;;6.10;;
20287;SDS011;10303;51.960;8.372;2024-02-28T00:20:06;13.33;;;7.40;;
20287;SDS011;10303;51.960;8.372;2024-02-28T00:22:35;11.47;;;6.30;;
20287;SDS011;10303;51.960;8.372;2024-02-28T00:25:04;13.83;;;6.97;;
20287;SDS011;10303;51.960;8.372;2024-02-28T00:27:34;14.90;;;7.50;;
20287;SDS011;10303;51.960;8.372;2024-02-28T00:30:00;15.20;;;7.30;;
20287;SDS011;10303;51.960;8.372;2024-02-28T00:32:26;11.97;;;6.60;;
20287;SDS011;10303;51.960;8.372;2024-02-28T00:34:52;14.93;;;7.30;;
20287;SDS011;10303;51.960;8.372;2024-02-28T00:37:18;15.30;;;8.17;;
20287;SDS011;10303;51.960;8.372;2024-02-28T00:39:44;25.37;;;10.60;;
20287;SDS011;10303;51.960;8.372;2024-02-28T00:42:10;16.83;;;8.60;;
20287;SDS011;10303;51.960;8.372;2024-02-28T00:44:36;20.10;;;9.00;;
20287;SDS011;10303;51.960;8.372;2024-02-28T00:47:02;22.83;;;9.17;;
20287;SDS011;10303;51.960;8.372;2024-02-28T00:49:28;20.87;;;9.90;;
20287;SDS011;10303;51.960;8.372;2024-02-28T00:51:54;18.40;;;8.77;;
20287;SDS011;10303;51.960;8.372;2024-02-28T00:54:21;17.13;;;9.97;;
20287;SDS011;10303;51.960;8.372;2024-02-28T00:56:49;21.03;;;10.23;;
20287;SDS011;10303;51.960;8.372;2024-02-28T00:59:14;15.50;;;7.80;;
20287;SDS011;10303;51.960;8.372;2024-02-28T01:01:40;19.77;;;9.50;;
20287;SDS011;10303;51.960;8.372;2024-02-28T01:04:06;17.23;;;8.87;;
20287;SDS011;10303;51.960;8.372;2024-02-28T01:06:32;21.67;;;9.57;;
20287;SDS011;10303;51.960;8.372;2024-02-28T01:08:58;15.50;;;7.70;;
20287;SDS011;10303;51.960;8.372;2024-02-28T01:11:24;15.73;;;7.53;;
20287;SDS011;10303;51.960;8.372;2024-02-28T01:13:50;13.77;;;7.53;;
20287;SDS011;10303;51.960;8.372;2024-02-28T01:16:16;15.53;;;8.07;;
20287;SDS011;10303;51.960;8.372;2024-02-28T01:18:42;18.30;;;7.83;;
20287;SDS011;10303;51.960;8.372;2024-02-28T01:21:08;13.07;;;8.23;;
20287;SDS011;10303;51.960;8.372;2024-02-28T01:23:34;14.83;;;7.87;;
20287;SDS011;10303;51.960;8.372;2024-02-28T01:26:00;15.07;;;7.73;;
20287;SDS011;10303;51.960;8.372;2024-02-28T01:28:29;18.70;;;7.83;;
20287;SDS011;10303;51.960;8.372;2024-02-28T01:30:55;14.37;;;8.40;;
20287;SDS011;10303;51.960;8.372;2024-02-28T01:33:20;17.90;;;8.63;;
20287;SDS011;10303;51.960;8.372;2024-02-28T01:35:47;20.90;;;9.93;;
20287;SDS011;10303;51.960;8.372;2024-02-28T01:38:13;16.43;;;8.20;;
20287;SDS011;10303;51.960;8.372;2024-02-28T01:40:38;15.77;;;7.20;;
20287;SDS011;10303;51.960;8.372;2024-02-28T01:43:11;11.60;;;7.00;;
20287;SDS011;10303;51.960;8.372;2024-02-28T01:45:37;11.17;;;7.00;;
20287;SDS011;10303;51.960;8.372;2024-02-28T01:48:03;14.27;;;7.37;;
20287;SDS011;10303;51.960;8.372;2024-02-28T01:50:35;15.27;;;7.90;;
20287;SDS011;10303;51.960;8.372;2024-02-28T01:53:02;11.83;;;7.17;;
20287;SDS011;10303;51.960;8.372;2024-02-28T01:55:31;13.53;;;6.47;;
20287;SDS011;10303;51.960;8.372;2024-02-28T01:57:57;14.03;;;7.23;;
20287;SDS011;10303;51.960;8.372;2024-02-28T02:00:24;13.97;;;7.53;;
20287;SDS011;10303;51.960;8.372;2024-02-28T02:02:53;12.00;;;6.57;;
20287;SDS011;10303;51.960;8.372;2024-02-28T02:05:19;9.23;;;6.07;;
20287;SDS011;10303;51.960;8.372;2024-02-28T02:07:49;11.63;;;6.70;;
20287;SDS011;10303;51.960;8.372;2024-02-28T02:10:16;11.80;;;6.47;;
20287;SDS011;10303;51.960;8.372;2024-02-28T02:12:42;14.30;;;8.33;;
20287;SDS011;10303;51.960;8.372;2024-02-28T02:15:08;12.10;;;7.30;;
20287;SDS011;10303;51.960;8.372;2024-02-28T02:17:35;11.37;;;7.37;;
20287;SDS011;10303;51.960;8.372;2024-02-28T02:20:01;13.93;;;7.30;;
20287;SDS011;10303;51.960;8.372;2024-02-28T02:22:32;14.07;;;6.97;;
20287;SDS011;10303;51.960;8.372;2024-02-28T02:25:04;12.77;;;6.70;;
20287;SDS011;10303;51.960;8.372;2024-02-28T02:27:31;12.23;;;6.77;;
20287;SDS011;10303;51.960;8.372;2024-02-28T02:29:57;7.13;;;4.73;;
20287;SDS011;10303;51.960;8.372;2024-02-28T02:32:23;10.27;;;6.40;;
20287;SDS011;10303;51.960;8.372;2024-02-28T02:34:49;11.30;;;7.40;;
20287;SDS011;10303;51.960;8.372;2024-02-28T02:37:15;12.80;;;7.17;;
20287;SDS011;10303;51.960;8.372;2024-02-28T02:39:41;11.93;;;7.07;;
20287;SDS011;10303;51.960;8.372;2024-02-28T02:42:07;12.03;;;7.27;;
20287;SDS011;10303;51.960;8.372;2024-02-28T02:44:33;13.03;;;6.73;;
20287;SDS011;10303;51.960;8.372;2024-02-28T02:47:00;15.23;;;7.00;;
20287;SDS011;10303;51.960;8.372;2024-02-28T02:49:25;8.27;;;5.93;;
20287;SDS011;10303;51.960;8.372;2024-02-28T02:51:52;13.87;;;6.83;;
20287;SDS011;10303;51.960;8.372;2024-02-28T02:54:18;18.13;;;8.53;;
20287;SDS011;10303;51.960;8.372;2024-02-28T02:56:44;10.67;;;6.13;;
20287;SDS011;10303;51.960;8.372;2024-02-28T02:59:10;13.50;;;7.03;;
20287;SDS011;10303;51.960;8.372;2024-02-28T03:01:39;8.87;;;6.10;;
20287;SDS011;10303;51.960;8.372;2024-02-28T03:04:05;13.60;;;6.93;;
20287;SDS011;10303;51.960;8.372;2024-02-28T03:06:31;12.33;;;7.43;;
20287;SDS011;10303;51.960;8.372;2024-02-28T03:08:57;11.80;;;5.70;;
20287;SDS011;10303;51.960;8.372;2024-02-28T03:11:23;9.57;;;6.60;;
20287;SDS011;10303;51.960;8.372;2024-02-28T03:13:50;14.27;;;7.10;;
20287;SDS011;10303;51.960;8.372;2024-02-28T03:16:15;16.13;;;6.03;;
20287;SDS011;10303;51.960;8.372;2024-02-28T03:18:42;9.40;;;6.03;;
20287;SDS011;10303;51.960;8.372;2024-02-28T03:21:08;12.90;;;6.70;;
20287;SDS011;10303;51.960;8.372;2024-02-28T03:23:35;10.67;;;6.80;;
20287;SDS011;10303;51.960;8.372;2024-02-28T03:26:01;13.07;;;7.67;;
20287;SDS011;10303;51.960;8.372;2024-02-28T03:28:28;8.53;;;5.87;;
20287;SDS011;10303;51.960;8.372;2024-02-28T03:30:54;14.20;;;7.23;;
20287;SDS011;10303;51.960;8.372;2024-02-28T03:33:20;14.73;;;7.90;;
20287;SDS011;10303;51.960;8.372;2024-02-28T03:35:47;13.17;;;7.40;;
20287;SDS011;10303;51.960;8.372;2024-02-28T03:38:13;12.00;;;7.40;;
20287;SDS011;10303;51.960;8.372;2024-02-28T03:40:38;10.77;;;7.33;;
20287;SDS011;10303;51.960;8.372;2024-02-28T03:43:04;9.77;;;5.30;;
20287;SDS011;10303;51.960;8.372;2024-02-28T03:45:30;10.33;;;6.60;;
20287;SDS011;10303;51.960;8.372;2024-02-28T03:48:03;14.23;;;6.97;;
20287;SDS011;10303;51.960;8.372;2024-02-28T03:50:29;10.03;;;6.33;;
20287;SDS011;10303;51.960;8.372;2024-02-28T03:52:55;10.13;;;6.07;;
20287;SDS011;10303;51.960;8.372;2024-02-28T03:55:21;12.13;;;6.30;;
20287;SDS011;10303;51.960;8.372;2024-02-28T03:57:47;11.60;;;6.57;;
20287;SDS011;10303;51.960;8.372;2024-02-28T04:00:16;8.53;;;5.37;;
20287;SDS011;10303;51.960;8.372;2024-02-28T04:02:42;12.53;;;7.43;;
20287;SDS011;10303;51.960;8.372;2024-02-28T04:05:08;10.50;;;6.43;;
20287;SDS011;10303;51.960;8.372;2024-02-28T04:07:34;8.37;;;4.97;;
20287;SDS011;10303;51.960;8.372;2024-02-28T04:10:00;10.00;;;6.73;;
20287;SDS011;10303;51.960;8.372;2024-02-28T04:12:26;10.73;;;6.00;;
20287;SDS011;10303;51.960;8.372;2024-02-28T04:14:52;8.60;;;5.57;;
20287;SDS011;10303;51.960;8.372;2024-02-28T04:17:18;11.50;;;6.10;;
20287;SDS011;10303;51.960;8.372;2024-02-28T04:19:44;11.47;;;6.67;;
20287;SDS011;10303;51.960;8.372;2024-02-28T04:22:10;10.77;;;6.13;;
20287;SDS011;10303;51.960;8.372;2024-02-28T04:24:36;10.60;;;6.73;;
20287;SDS011;10303;51.960;8.372;2024-02-28T04:27:02;9.83;;;6.23;;
20287;SDS011;10303;51.960;8.372;2024-02-28T04:29:30;10.33;;;6.00;;
20287;SDS011;10303;51.960;8.372;2024-02-28T04:31:56;7.30;;;4.70;;
20287;SDS011;10303;51.960;8.372;2024-02-28T04:34:22;6.00;;;5.10;;
20287;SDS011;10303;51.960;8.372;2024-02-28T04:36:48;10.93;;;5.80;;
20287;SDS011;10303;51.960;8.372;2024-02-28T04:39:14;10.83;;;5.50;;
20287;SDS011;10303;51.960;8.372;2024-02-28T04:41:40;8.40;;;5.57;;
20287;SDS011;10303;51.960;8.372;2024-02-28T04:44:05;8.40;;;5.73;;
20287;SDS011;10303;51.960;8.372;2024-02-28T04:46:32;8.13;;;5.43;;
20287;SDS011;10303;51.960;8.372;2024-02-28T04:48:59;9.47;;;5.37;;
20287;SDS011;10303;51.960;8.372;2024-02-28T04:51:25;7.30;;;5.63;;
20287;SDS011;10303;51.960;8.372;2024-02-28T04:53:51;12.67;;;6.43;;
20287;SDS011;10303;51.960;8.372;2024-02-28T04:56:17;12.83;;;6.80;;
20287;SDS011;10303;51.960;8.372;2024-02-28T04:58:43;10.73;;;6.53;;
20287;SDS011;10303;51.960;8.372;2024-02-28T05:01:09;11.60;;;6.47;;
20287;SDS011;10303;51.960;8.372;2024-02-28T05:03:35;7.13;;;4.47;;
20287;SDS011;10303;51.960;8.372;2024-02-28T05:06:00;11.73;;;7.47;;
20287;SDS011;10303;51.960;8.372;2024-02-28T05:08:26;11.83;;;6.80;;
20287;SDS011;10303;51.960;8.372;2024-02-28T05:10:53;12.27;;;6.97;;
20287;SDS011;10303;51.960;8.372;2024-02-28T05:13:19;11.07;;;7.00;;
20287;SDS011;10303;51.960;8.372;2024-02-28T05:15:47;13.60;;;7.07;;
20287;SDS011;10303;51.960;8.372;2024-02-28T05:18:13;15.10;;;8.37;;
20287;SDS011;10303;51.960;8.372;2024-02-28T05:20:39;14.90;;;8.20;;
20287;SDS011;10303;51.960;8.372;2024-02-28T05:23:05;16.30;;;8.40;;
20287;SDS011;10303;51.960;8.372;2024-02-28T05:25:31;14.43;;;8.00;;
20287;SDS011;10303;51.960;8.372;2024-02-28T05:27:56;13.57;;;7.13;;
20287;SDS011;10303;51.960;8.372;2024-02-28T05:30:22;10.90;;;6.73;;
20287;SDS011;10303;51.960;8.372;2024-02-28T05:32:48;13.37;;;7.17;;
20287;SDS011;10303;51.960;8.372;2024-02-28T05:35:15;15.97;;;9.23;;
20287;SDS011;10303;51.960;8.372;2024-02-28T05:37:41;11.67;;;7.20;;
20287;SDS011;10303;51.960;8.372;2024-02-28T05:40:07;11.40;;;7.47;;
20287;SDS011;10303;51.960;8.372;2024-02-28T05:42:34;10.87;;;7.10;;
20287;SDS011;10303;51.960;8.372;2024-02-28T05:45:00;18.10;;;8.30;;
20287;SDS011;10303;51.960;8.372;2024-02-28T05:47:26;19.60;;;9.43;;
20287;SDS011;10303;51.960;8.372;2024-02-28T05:49:53;13.73;;;7.63;;
20287;SDS011;10303;51.960;8.372;2024-02-28T05:52:21;18.83;;;8.27;;
20287;SDS011;10303;51.960;8.372;2024-02-28T05:54:47;13.57;;;7.43;;
20287;SDS011;10303;51.960;8.372;2024-02-28T05:57:13;13.73;;;7.90;;
20287;SDS011;10303;51.960;8.372;2024-02-28T05:59:39;10.53;;;7.40;;
20287;SDS011;10303;51.960;8.372;2024-02-28T06:02:05;10.03;;;5.87;;
20287;SDS011;10303;51.960;8.372;2024-02-28T06:04:31;12.27;;;6.43;;
20287;SDS011;10303;51.960;8.372;2024-02-28T06:06:56;12.60;;;6.97;;
20287;SDS011;10303;51.960;8.372;2024-02-28T06:09:22;11.93;;;7.10;;
20287;SDS011;10303;51.960;8.372;2024-02-28T06:11:48;12.17;;;6.67;;
20287;SDS011;10303;51.960;8.372;2024-02-28T06:14:14;9.37;;;6.20;;
20287;SDS011;10303;51.960;8.372;2024-02-28T06:16:40;10.87;;;6.07;;
20287;SDS011;10303;51.960;8.372;2024-02-28T06:19:06;9.60;;;5.50;;
20287;SDS011;10303;51.960;8.372;2024-02-28T06:21:32;11.27;;;6.23;;
20287;SDS011;10303;51.960;8.372;2024-02-28T06:23:58;9.60;;;5.30;;
20287;SDS011;10303;51.960;8.372;2024-02-28T06:26:24;11.07;;;6.50;;
20287;SDS011;10303;51.960;8.372;2024-02-28T06:28:50;12.03;;;5.67;;
20287;SDS011;10303;51.960;8.372;2024-02-28T06:31:16;12.23;;;6.80;;
20287;SDS011;10303;51.960;8.372;2024-02-28T06:33:43;14.43;;;7.13;;
20287;SDS011;10303;51.960;8.372;2024-02-28T06:36:09;11.80;;;6.60;;
20287;SDS011;10303;51.960;8.372;2024-02-28T06:38:35;20.60;;;8.67;;
20287;SDS011;10303;51.960;8.372;2024-02-28T06:41:04;15.50;;;7.17;;
20287;SDS011;10303;51.960;8.372;2024-02-28T06:43:34;16.97;;;8.10;;
20287;SDS011;10303;51.960;8.372;2024-02-28T06:46:03;13.50;;;7.77;;
20287;SDS011;10303;51.960;8.372;2024-02-28T06:48:29;19.03;;;8.00;;
20287;SDS011;10303;51.960;8.372;2024-02-28T06:50:55;16.47;;;8.20;;
20287;SDS011;10303;51.960;8.372;2024-02-28T06:53:23;17.57;;;8.07;;
20287;SDS011;10303;51.960;8.372;2024-02-28T06:55:49;23.23;;;9.10;;
20287;SDS011;10303;51.960;8.372;2024-02-28T06:58:15;22.53;;;10.00;;
20287;SDS011;10303;51.960;8.372;2024-02-28T07:00:41;25.30;;;8.53;;
20287;SDS011;10303;51.960;8.372;2024-02-28T07:03:06;19.90;;;8.00;;
20287;SDS011;10303;51.960;8.372;2024-02-28T07:05:32;15.33;;;7.53;;
20287;SDS011;10303;51.960;8.372;2024-02-28T07:07:59;26.20;;;8.93;;
20287;SDS011;10303;51.960;8.372;2024-02-28T07:10:25;33.47;;;10.63;;
20287;SDS011;10303;51.960;8.372;2024-02-28T07:12:51;16.07;;;7.83;;
20287;SDS011;10303;51.960;8.372;2024-02-28T07:15:17;13.03;;;6.97;;
20287;SDS011;10303;51.960;8.372;2024-02-28T07:17:46;18.53;;;8.63;;
20287;SDS011;10303;51.960;8.372;2024-02-28T07:20:13;14.20;;;7.97;;
20287;SDS011;10303;51.960;8.372;2024-02-28T07:22:39;15.23;;;8.00;;
20287;SDS011;10303;51.960;8.372;2024-02-28T07:25:05;9.63;;;6.20;;
20287;SDS011;10303;51.960;8.372;2024-02-28T07:27:33;16.03;;;7.50;;
20287;SDS011;10303;51.960;8.372;2024-02-28T07:29:58;19.80;;;8.50;;
20287;SDS011;10303;51.960;8.372;2024-02-28T07:32:26;18.33;;;8.47;;
20287;SDS011;10303;51.960;8.372;2024-02-28T07:34:52;19.27;;;7.73;;
20287;SDS011;10303;51.960;8.372;2024-02-28T07:37:18;14.73;;;7.23;;
20287;SDS011;10303;51.960;8.372;2024-02-28T07:39:44;14.87;;;7.57;;
20287;SDS011;10303;51.960;8.372;2024-02-28T07:42:10;16.23;;;7.87;;
20287;SDS011;10303;51.960;8.372;2024-02-28T07:44:35;15.60;;;7.93;;
20287;SDS011;10303;51.960;8.372;2024-02-28T07:47:01;13.53;;;7.10;;
20287;SDS011;10303;51.960;8.372;2024-02-28T07:49:27;11.10;;;6.80;;
20287;SDS011;10303;51.960;8.372;2024-02-28T07:51:53;16.53;;;7.73;;
20287;SDS011;10303;51.960;8.372;2024-02-28T07:54:19;16.57;;;7.17;;
20287;SDS011;10303;51.960;8.372;2024-02-28T07:56:45;14.40;;;7.00;;
20287;SDS011;10303;51.960;8.372;2024-02-28T07:59:11;17.83;;;8.07;;
20287;SDS011;10303;51.960;8.372;2024-02-28T08:01:37;15.53;;;7.43;;
20287;SDS011;10303;51.960;8.372;2024-02-28T08:04:04;14.77;;;8.17;;
20287;SDS011;10303;51.960;8.372;2024-02-28T08:06:30;14.27;;;7.13;;
20287;SDS011;10303;51.960;8.372;2024-02-28T08:08:58;32.00;;;13.07;;
20287;SDS011;10303;51.960;8.372;2024-02-28T08:11:24;28.33;;;13.13;;
20287;SDS011;10303;51.960;8.372;2024-02-28T08:13:50;20.37;;;10.00;;
20287;SDS011;10303;51.960;8.372;2024-02-28T08:16:16;20.50;;;9.23;;
20287;SDS011;10303;51.960;8.372;2024-02-28T08:18:43;14.97;;;7.37;;
20287;SDS011;10303;51.960;8.372;2024-02-28T08:21:09;16.10;;;8.17;;
20287;SDS011;10303;51.960;8.372;2024-02-28T08:23:35;17.43;;;9.00;;
20287;SDS011;10303;51.960;8.372;2024-02-28T08:26:01;20.17;;;7.10;;
20287;SDS011;10303;51.960;8.372;2024-02-28T08:28:28;19.20;;;8.53;;
20287;SDS011;10303;51.960;8.372;2024-02-28T08:30:53;24.27;;;8.40;;
20287;SDS011;10303;51.960;8.372;2024-02-28T08:33:19;20.37;;;8.77;;
20287;SDS011;10303;51.960;8.372;2024-02-28T08:35:45;18.93;;;8.93;;
20287;SDS011;10303;51.960;8.372;2024-02-28T08:38:11;15.90;;;8.40;;
20287;SDS011;10303;51.960;8.372;2024-02-28T08:40:37;22.83;;;10.30;;
20287;SDS011;10303;51.960;8.372;2024-02-28T08:43:03;14.07;;;8.00;;
20287;SDS011;10303;51.960;8.372;2024-02-28T08:45:29;17.20;;;7.27;;
20287;SDS011;10303;51.960;8.372;2024-02-28T08:47:55;18.97;;;8.63;;
20287;SDS011;10303;51.960;8.372;2024-02-28T08:50:22;20.97;;;8.67;;
20287;SDS011;10303;51.960;8.372;2024-02-28T08:52:48;22.43;;;9.47;;
20287;SDS011;10303;51.960;8.372;2024-02-28T08:55:14;29.43;;;11.57;;
20287;SDS011;10303;51.960;8.372;2024-02-28T08:57:43;20.60;;;10.70;;
20287;SDS011;10303;51.960;8.372;2024-02-28T09:00:10;26.97;;;10.30;;
20287;SDS011;10303;51.960;8.372;2024-02-28T09:02:37;19.57;;;9.07;;
20287;SDS011;10303;51.960;8.372;2024-02-28T09:05:03;20.20;;;8.97;;
20287;SDS011;10303;51.960;8.372;2024-02-28T09:07:30;24.30;;;8.43;;
20287;SDS011;10303;51.960;8.372;2024-02-28T09:09:56;23.60;;;10.40;;
20287;SDS011;10303;51.960;8.372;2024-02-28T09:12:21;20.47;;;8.53;;
20287;SDS011;10303;51.960;8.372;2024-02-28T09:14:47;27.63;;;10.43;;
20287;SDS011;10303;51.960;8.372;2024-02-28T09:17:19;26.43;;;12.03;;
20287;SDS011;10303;51.960;8.372;2024-02-28T09:19:45;27.73;;;9.77;;
20287;SDS011;10303;51.960;8.372;2024-02-28T09:22:11;27.73;;;11.67;;
20287;SDS011;10303;51.960;8.372;2024-02-28T09:24:37;22.47;;;10.77;;
20287;SDS011;10303;51.960;8.372;2024-02-28T09:27:03;23.90;;;10.10;;
20287;SDS011;10303;51.960;8.372;2024-02-28T09:29:30;37.10;;;13.53;;
20287;SDS011;10303;51.960;8.372;2024-02-28T09:31:56;29.93;;;11.93;;
20287;SDS011;10303;51.960;8.372;2024-02-28T09:34:22;32.97;;;12.27;;
20287;SDS011;10303;51.960;8.372;2024-02-28T09:36:48;27.73;;;11.67;;
20287;SDS011;10303;51.960;8.372;2024-02-28T09:39:14;26.87;;;11.40;;
20287;SDS011;10303;51.960;8.372;2024-02-28T09:41:40;31.17;;;12.20;;
20287;SDS011;10303;51.960;8.372;2024-02-28T09:44:06;27.53;;;11.33;;
20287;SDS011;10303;51.960;8.372;2024-02-28T09:46:33;33.37;;;11.07;;
20287;SDS011;10303;51.960;8.372;2024-02-28T09:49:06;24.47;;;10.57;;
20287;SDS011;10303;51.960;8.372;2024-02-28T09:51:34;24.27;;;9.70;;
20287;SDS011;10303;51.960;8.372;2024-02-28T09:54:04;30.53;;;11.80;;
20287;SDS011;10303;51.960;8.372;2024-02-28T09:56:31;38.27;;;13.93;;
20287;SDS011;10303;51.960;8.372;2024-02-28T09:58:58;33.80;;;13.87;;
20287;SDS011;10303;51.960;8.372;2024-02-28T10:01:27;35.17;;;13.57;;
20287;SDS011;10303;51.960;8.372;2024-02-28T10:03:54;33.67;;;12.53;;
20287;SDS011;10303;51.960;8.372;2024-02-28T10:06:22;37.67;;;14.60;;
20287;SDS011;10303;51.960;8.372;2024-02-28T10:08:48;40.43;;;14.37;;
20287;SDS011;10303;51.960;8.372;2024-02-28T10:11:21;38.40;;;14.43;;
20287;SDS011;10303;51.960;8.372;2024-02-28T10:13:47;35.67;;;12.87;;
20287;SDS011;10303;51.960;8.372;2024-02-28T10:16:14;38.60;;;15.43;;
20287;SDS011;10303;51.960;8.372;2024-02-28T10:18:44;25.43;;;11.83;;
20287;SDS011;10303;51.960;8.372;2024-02-28T10:21:11;36.03;;;13.23;;
20287;SDS011;10303;51.960;8.372;2024-02-28T10:23:37;31.43;;;12.73;;
20287;SDS011;10303;51.960;8.372;2024-02-28T10:26:04;26.20;;;11.10;;
20287;SDS011;10303;51.960;8.372;2024-02-28T10:28:30;40.33;;;15.67;;
20287;SDS011;10303;51.960;8.372;2024-02-28T10:30:56;28.73;;;12.63;;
20287;SDS011;10303;51.960;8.372;2024-02-28T10:33:25;42.80;;;15.10;;
20287;SDS011;10303;51.960;8.372;2024-02-28T10:35:55;42.83;;;14.50;;
20287;SDS011;10303;51.960;8.372;2024-02-28T10:38:21;43.17;;;16.03;;
20287;SDS011;10303;51.960;8.372;2024-02-28T10:40:48;37.43;;;14.77;;
20287;SDS011;10303;51.960;8.372;2024-02-28T10:43:16;36.53;;;13.53;;
20287;SDS011;10303;51.960;8.372;2024-02-28T10:45:45;31.70;;;11.67;;
20287;SDS011;10303;51.960;8.372;2024-02-28T10:48:13;30.33;;;12.27;;
20287;SDS011;10303;51.960;8.372;2024-02-28T10:50:41;41.00;;;16.20;;
20287;SDS011;10303;51.960;8.372;2024-02-28T10:53:12;36.23;;;15.97;;
20287;SDS011;10303;51.960;8.372;2024-02-28T10:55:42;43.73;;;16.80;;
20287;SDS011;10303;51.960;8.372;2024-02-28T10:58:13;43.33;;;16.40;;
20287;SDS011;10303;51.960;8.372;2024-02-28T11:00:41;45.37;;;17.13;;
20287;SDS011;10303;51.960;8.372;2024-02-28T11:03:12;41.43;;;15.10;;
20287;SDS011;10303;51.960;8.372;2024-02-28T11:05:42;39.43;;;16.57;;
20287;SDS011;10303;51.960;8.372;2024-02-28T11:08:20;37.37;;;13.97;;
20287;SDS011;10303;51.960;8.372;2024-02-28T11:11:09;29.43;;;11.60;;
20287;SDS011;10303;51.960;8.372;2024-02-28T11:13:35;25.13;;;11.20;;
20287;SDS011;10303;51.960;8.372;2024-02-28T11:16:10;30.27;;;12.57;;
20287;SDS011;10303;51.960;8.372;2024-02-28T11:18:47;32.40;;;13.50;;
20287;SDS011;10303;51.960;8.372;2024-02-28T11:21:17;34.23;;;14.77;;
20287;SDS011;10303;51.960;8.372;2024-02-28T11:23:46;24.77;;;10.80;;
20287;SDS011;10303;51.960;8.372;2024-02-28T11:26:13;30.90;;;12.90;;
20287;SDS011;10303;51.960;8.372;2024-02-28T11:28:39;31.03;;;13.97;;
20287;SDS011;10303;51.960;8.372;2024-02-28T11:31:05;36.87;;;13.73;;
20287;SDS011;10303;51.960;8.372;2024-02-28T11:33:31;28.27;;;12.10;;
20287;SDS011;10303;51.960;8.372;2024-02-28T11:35:58;29.40;;;12.63;;
20287;SDS011;10303;51.960;8.372;2024-02-28T11:38:27;52.13;;;18.93;;
20287;SDS011;10303;51.960;8.372;2024-02-28T11:40:54;34.63;;;14.23;;
20287;SDS011;10303;51.960;8.372;2024-02-28T11:43:20;41.40;;;15.50;;
20287;SDS011;10303;51.960;8.372;2024-02-28T11:45:47;38.37;;;16.20;;
20287;SDS011;10303;51.960;8.372;2024-02-28T11:48:13;24.60;;;12.33;;
20287;SDS011;10303;51.960;8.372;2024-02-28T11:50:40;38.80;;;15.23;;
20287;SDS011;10303;51.960;8.372;2024-02-28T11:53:06;32.10;;;12.67;;
20287;SDS011;10303;51.960;8.372;2024-02-28T11:55:33;35.97;;;15.07;;
20287;SDS011;10303;51.960;8.372;2024-02-28T11:57:59;29.53;;;13.20;;
20287;SDS011;10303;51.960;8.372;2024-02-28T12:00:25;26.30;;;10.63;;
20287;SDS011;10303;51.960;8.372;2024-02-28T12:02:51;25.43;;;10.87;;
20287;SDS011;10303;51.960;8.372;2024-02-28T12:05:22;29.60;;;11.53;;
20287;SDS011;10303;51.960;8.372;2024-02-28T12:07:47;37.43;;;15.47;;
20287;SDS011;10303;51.960;8.372;2024-02-28T12:10:13;28.13;;;12.27;;
20287;SDS011;10303;51.960;8.372;2024-02-28T12:12:39;39.03;;;15.60;;
20287;SDS011;10303;51.960;8.372;2024-02-28T12:15:06;35.07;;;13.47;;
20287;SDS011;10303;51.960;8.372;2024-02-28T12:17:33;45.20;;;16.03;;
20287;SDS011;10303;51.960;8.372;2024-02-28T12:20:01;40.47;;;17.50;;
20287;SDS011;10303;51.960;8.372;2024-02-28T12:22:27;43.57;;;14.80;;
20287;SDS011;10303;51.960;8.372;2024-02-28T12:24:53;41.47;;;16.70;;
20287;SDS011;10303;51.960;8.372;2024-02-28T12:27:19;37.47;;;16.13;;
20287;SDS011;10303;51.960;8.372;2024-02-28T12:29:45;27.80;;;13.07;;
20287;SDS011;10303;51.960;8.372;2024-02-28T12:32:11;37.43;;;15.03;;
20287;SDS011;10303;51.960;8.372;2024-02-28T12:34:37;24.07;;;12.93;;
20287;SDS011;10303;51.960;8.372;2024-02-28T12:37:03;27.13;;;12.20;;
20287;SDS011;10303;51.960;8.372;2024-02-28T12:39:30;28.07;;;11.70;;
20287;SDS011;10303;51.960;8.372;2024-02-28T12:41:59;26.10;;;11.30;;
20287;SDS011;10303;51.960;8.372;2024-02-28T12:44:26;25.17;;;11.13;;
20287;SDS011;10303;51.960;8.372;2024-02-28T12:46:51;29.60;;;12.73;;
20287;SDS011;10303;51.960;8.372;2024-02-28T12:49:17;30.13;;;14.40;;
20287;SDS011;10303;51.960;8.372;2024-02-28T12:51:44;37.33;;;14.47;;
20287;SDS011;10303;51.960;8.372;2024-02-28T12:54:11;28.27;;;12.47;;
20287;SDS011;10303;51.960;8.372;2024-02-28T12:56:41;25.67;;;11.97;;
20287;SDS011;10303;51.960;8.372;2024-02-28T12:59:11;27.30;;;10.13;;
20287;SDS011;10303;51.960;8.372;2024-02-28T13:01:37;16.30;;;9.50;;
20287;SDS011;10303;51.960;8.372;2024-02-28T13:04:04;20.83;;;9.63;;
20287;SDS011;10303;51.960;8.372;2024-02-28T13:06:30;24.13;;;9.10;;
20287;SDS011;10303;51.960;8.372;2024-02-28T13:08:56;23.37;;;10.70;;
20287;SDS011;10303;51.960;8.372;2024-02-28T13:11:22;28.23;;;11.90;;
20287;SDS011;10303;51.960;8.372;2024-02-28T13:13:50;28.10;;;12.90;;
20287;SDS011;10303;51.960;8.372;2024-02-28T13:16:17;25.30;;;12.27;;
20287;SDS011;10303;51.960;8.372;2024-02-28T13:18:44;22.40;;;10.93;;
20287;SDS011;10303;51.960;8.372;2024-02-28T13:21:11;26.77;;;11.20;;
20287;SDS011;10303;51.960;8.372;2024-02-28T13:23:37;24.40;;;10.97;;
20287;SDS011;10303;51.960;8.372;2024-02-28T13:26:04;36.43;;;14.73;;
20287;SDS011;10303;51.960;8.372;2024-02-28T13:28:31;30.80;;;14.53;;
20287;SDS011;10303;51.960;8.372;2024-02-28T13:31:00;29.50;;;12.10;;
20287;SDS011;10303;51.960;8.372;2024-02-28T13:33:29;37.37;;;18.03;;
20287;SDS011;10303;51.960;8.372;2024-02-28T13:35:55;37.87;;;17.97;;
20287;SDS011;10303;51.960;8.372;2024-02-28T13:38:21;25.37;;;12.77;;
20287;SDS011;10303;51.960;8.372;2024-02-28T13:40:47;24.83;;;12.87;;
20287;SDS011;10303;51.960;8.372;2024-02-28T13:43:15;24.67;;;11.57;;
20287;SDS011;10303;51.960;8.372;2024-02-28T13:45:49;26.47;;;12.53;;
20287;SDS011;10303;51.960;8.372;2024-02-28T13:48:21;26.23;;;12.30;;
20287;SDS011;10303;51.960;8.372;2024-02-28T13:50:51;23.33;;;12.63;;
20287;SDS011;10303;51.960;8.372;2024-02-28T13:53:17;28.30;;;12.07;;
20287;SDS011;10303;51.960;8.372;2024-02-28T13:55:43;23.87;;;12.43;;
20287;SDS011;10303;51.960;8.372;2024-02-28T13:58:13;19.80;;;11.37;;
20287;SDS011;10303;51.960;8.372;2024-02-28T14:00:43;25.77;;;11.50;;
20287;SDS011;10303;51.960;8.372;2024-02-28T14:03:10;19.23;;;10.37;;
20287;SDS011;10303;51.960;8.372;2024-02-28T14:05:36;25.63;;;12.73;;
20287;SDS011;10303;51.960;8.372;2024-02-28T14:08:02;26.40;;;12.00;;
20287;SDS011;10303;51.960;8.372;2024-02-28T14:10:29;25.87;;;12.50;;
20287;SDS011;10303;51.960;8.372;2024-02-28T14:12:55;23.57;;;11.13;;
20287;SDS011;10303;51.960;8.372;2024-02-28T14:15:21;21.60;;;10.53;;
20287;SDS011;10303;51.960;8.372;2024-02-28T14:17:47;23.17;;;11.17;;
20287;SDS011;10303;51.960;8.372;2024-02-28T14:20:14;19.83;;;10.37;;
20287;SDS011;10303;51.960;8.372;2024-02-28T14:22:40;29.60;;;14.13;;
20287;SDS011;10303;51.960;8.372;2024-02-28T14:25:10;25.70;;;12.87;;
20287;SDS011;10303;51.960;8.372;2024-02-28T14:27:39;23.20;;;11.93;;